Time;durP1;ratioP1;P1;durP2;ratioP2;P2;SDS_P1;SDS_P2;PMS_P1;PMS_P2;Temp;Humidity;BMP_temperature;BMP_pressure;BME280_temperature;BME280_humidity;BME280_pressure;Samples;Min_cycle;Max_cycle;Signal;HPM_P1;HPM_P2
2022/11/29 00:00:51;;;;;;;254.27;35.45;;;8.00;99.90;;;;;;5094546;28;20043;-64
2022/11/29 00:03:18;;;;;;;158.00;24.67;;;8.00;99.90;;;;;;5094017;28;20501;-64
2022/11/29 00:05:45;;;;;;;207.00;32.42;;;8.00;99.90;;;;;;5093919;28;20536;-64
2022/11/29 00:08:12;;;;;;;217.30;29.10;;;8.00;99.90;;;;;;5093971;28;20055;-64
2022/11/29 00:10:39;;;;;;;256.15;41.53;;;8.00;99.90;;;;;;5094682;28;20040;-64
2022/11/29 00:13:07;;;;;;;407.45;49.58;;;7.90;99.90;;;;;;5094348;28;20077;-65
2022/11/29 00:15:36;;;;;;;213.50;29.92;;;7.90;99.90;;;;;;5091769;28;20056;-64
2022/11/29 00:18:03;;;;;;;274.27;40.63;;;7.90;99.90;;;;;;5094961;28;20044;-64
2022/11/29 00:20:30;;;;;;;368.30;55.15;;;7.90;99.90;;;;;;5095073;28;20076;-64
2022/11/29 00:22:57;;;;;;;178.98;29.85;;;7.80;99.90;;;;;;5094378;28;20048;-64
2022/11/29 00:25:24;;;;;;;230.23;28.73;;;7.90;99.90;;;;;;5093957;28;20407;-63
2022/11/29 00:27:51;;;;;;;323.45;43.67;;;7.80;99.90;;;;;;5093903;28;20097;-64
2022/11/29 00:30:20;;;;;;;402.80;51.58;;;7.80;99.90;;;;;;5092984;28;20059;-63
2022/11/29 00:32:47;;;;;;;298.60;39.40;;;7.80;99.90;;;;;;5094900;28;20407;-64
2022/11/29 00:35:14;;;;;;;147.13;26.42;;;7.70;99.90;;;;;;5092667;28;20442;-64
2022/11/29 00:37:41;;;;;;;196.77;32.22;;;7.80;99.90;;;;;;5092677;28;20056;-64
2022/11/29 00:40:08;;;;;;;268.77;39.08;;;7.70;99.90;;;;;;5094714;28;20048;-64
2022/11/29 00:42:35;;;;;;;316.58;44.97;;;7.80;99.90;;;;;;5094411;28;20488;-64
2022/11/29 00:45:02;;;;;;;212.43;31.83;;;7.70;99.90;;;;;;5092436;28;20051;-64
2022/11/29 00:47:31;;;;;;;180.18;25.17;;;7.70;99.90;;;;;;5093317;28;20518;-64
2022/11/29 00:49:58;;;;;;;286.40;38.80;;;7.70;99.90;;;;;;5094684;28;20055;-64
2022/11/29 00:52:24;;;;;;;174.38;30.90;;;7.70;99.90;;;;;;5093994;28;20044;-64
2022/11/29 00:54:51;;;;;;;178.18;26.52;;;7.70;99.90;;;;;;5093104;28;20052;-64
2022/11/29 00:57:18;;;;;;;171.88;26.48;;;7.70;99.90;;;;;;5093333;28;20047;-64
2022/11/29 00:59:45;;;;;;;223.63;33.55;;;7.70;99.90;;;;;;5090702;28;20051;-64
2022/11/29 01:02:12;;;;;;;231.40;37.03;;;7.60;99.90;;;;;;5094290;28;20101;-64
2022/11/29 01:04:40;;;;;;;213.35;31.27;;;7.60;99.90;;;;;;5094552;28;20043;-64
2022/11/29 01:07:07;;;;;;;147.73;27.10;;;7.60;99.90;;;;;;5093427;28;20047;-64
2022/11/29 01:09:34;;;;;;;118.45;23.48;;;7.60;99.90;;;;;;5094421;28;20048;-64
2022/11/29 01:12:01;;;;;;;92.10;21.33;;;7.60;99.90;;;;;;5091578;28;20052;-64
2022/11/29 01:14:28;;;;;;;300.20;44.10;;;7.70;99.90;;;;;;5094136;28;21288;-64
2022/11/29 01:16:55;;;;;;;240.00;34.35;;;7.60;99.90;;;;;;5093764;28;20101;-64
2022/11/29 01:19:22;;;;;;;167.50;28.90;;;7.60;99.90;;;;;;5093589;28;20043;-64
2022/11/29 01:21:50;;;;;;;142.75;26.27;;;7.70;99.90;;;;;;5092745;28;20040;-64
2022/11/29 01:24:17;;;;;;;291.83;42.65;;;7.70;99.90;;;;;;5092745;28;20044;-63
2022/11/29 01:26:44;;;;;;;93.70;25.27;;;7.70;99.90;;;;;;5092025;28;20052;-64
2022/11/29 01:29:12;;;;;;;131.80;21.98;;;7.70;99.90;;;;;;5093804;28;20094;-67
2022/11/29 01:31:39;;;;;;;131.73;26.70;;;7.70;99.90;;;;;;5093957;28;20050;-63
2022/11/29 01:34:07;;;;;;;314.05;45.75;;;7.70;99.90;;;;;;5091941;28;20101;-64
2022/11/29 01:36:34;;;;;;;294.38;44.35;;;7.70;99.90;;;;;;5090367;28;20048;-64
2022/11/29 01:39:04;;;;;;;154.18;33.65;;;7.70;99.90;;;;;;5093636;28;20122;-64
2022/11/29 01:41:34;;;;;;;257.20;36.53;;;7.60;99.90;;;;;;5091990;28;20044;-65
2022/11/29 01:44:04;;;;;;;138.50;29.55;;;7.60;99.90;;;;;;5092161;28;20059;-64
2022/11/29 01:46:34;;;;;;;200.23;38.20;;;7.60;99.90;;;;;;5092420;28;20423;-65
2022/11/29 01:49:07;;;;;;;91.10;22.42;;;7.70;99.90;;;;;;5091569;28;20054;-65
2022/11/29 01:51:36;;;;;;;71.10;20.63;;;7.70;99.90;;;;;;5093339;28;20047;-65
2022/11/29 01:54:04;;;;;;;80.13;20.13;;;7.70;99.90;;;;;;5091742;28;20056;-65
2022/11/29 01:56:34;;;;;;;97.80;23.40;;;7.70;99.90;;;;;;5093126;28;20101;-65
2022/11/29 01:59:03;;;;;;;156.48;32.95;;;7.70;99.90;;;;;;5092109;28;20075;-65
2022/11/29 02:01:30;;;;;;;74.55;18.48;;;7.70;99.90;;;;;;5091506;28;20044;-65
2022/11/29 02:03:57;;;;;;;70.80;18.92;;;7.60;99.90;;;;;;5089627;28;20059;-65
2022/11/29 02:06:24;;;;;;;132.95;28.13;;;7.60;99.90;;;;;;5092024;28;20070;-65
2022/11/29 02:08:51;;;;;;;77.80;20.75;;;7.60;99.90;;;;;;5091177;28;20056;-65
2022/11/29 02:11:56;;;;;;;101.53;22.55;;;7.60;99.90;;;;;;5093137;28;20467;-65
2022/11/29 02:14:52;;;;;;;108.05;26.02;;;7.60;99.90;;;;;;5089965;28;20050;-65
2022/11/29 02:17:30;;;;;;;144.70;33.60;;;7.60;99.90;;;;;;5091337;28;20466;-65
2022/11/29 02:20:25;;;;;;;145.65;29.02;;;7.60;99.90;;;;;;5093004;28;20052;-65
2022/11/29 02:22:59;;;;;;;62.50;19.85;;;7.50;99.90;;;;;;5077896;28;20052;-65
2022/11/29 02:25:40;;;;;;;62.15;21.63;;;7.50;99.90;;;;;;5091472;28;20051;-64
2022/11/29 02:28:43;;;;;;;45.00;18.02;;;7.50;99.90;;;;;;5091850;28;21287;-64
2022/11/29 02:32:00;;;;;;;43.22;18.27;;;7.50;99.90;;;;;;5090915;28;20052;-64
2022/11/29 02:34:52;;;;;;;90.32;26.83;;;7.50;99.90;;;;;;5086543;28;20453;-65
2022/11/29 02:37:47;;;;;;;54.28;21.15;;;7.50;99.90;;;;;;5090597;28;20055;-65
2022/11/29 02:40:41;;;;;;;44.35;18.52;;;7.40;99.90;;;;;;5092503;28;20044;-65
2022/11/29 02:43:26;;;;;;;64.57;22.35;;;7.40;99.90;;;;;;5090258;28;20052;-65
2022/11/29 02:46:18;;;;;;;52.17;20.60;;;7.40;99.90;;;;;;5092116;28;20059;-65
2022/11/29 02:49:00;;;;;;;62.72;24.58;;;7.40;99.90;;;;;;5091196;28;20109;-64
2022/11/29 02:51:36;;;;;;;32.47;16.08;;;7.40;99.90;;;;;;5090795;28;20052;-64
2022/11/29 02:54:11;;;;;;;36.90;17.52;;;7.40;99.90;;;;;;5091321;28;20044;-64
2022/11/29 02:56:42;;;;;;;36.63;17.15;;;7.40;99.90;;;;;;5091887;28;20406;-65
2022/11/29 02:59:13;;;;;;;66.28;21.80;;;7.40;99.90;;;;;;5089436;28;20043;-65
2022/11/29 03:01:49;;;;;;;56.13;22.13;;;7.40;99.90;;;;;;5090816;28;20043;-65
2022/11/29 03:04:25;;;;;;;34.15;17.52;;;7.40;99.90;;;;;;5091173;28;20074;-65
2022/11/29 03:07:03;;;;;;;61.03;21.38;;;7.40;99.90;;;;;;5090803;28;20120;-65
2022/11/29 03:09:38;;;;;;;79.97;23.60;;;7.30;99.90;;;;;;5092023;28;20062;-65
2022/11/29 03:12:16;;;;;;;52.40;18.05;;;7.40;99.90;;;;;;5090589;28;20415;-65
2022/11/29 03:14:54;;;;;;;93.13;22.15;;;7.40;99.90;;;;;;5091127;28;20101;-65
2022/11/29 03:17:31;;;;;;;71.55;18.38;;;7.30;99.90;;;;;;5091913;28;20059;-65
2022/11/29 03:20:18;;;;;;;81.80;18.35;;;7.30;99.90;;;;;;5091680;28;20055;-65
2022/11/29 03:23:00;;;;;;;147.85;25.20;;;7.30;99.90;;;;;;5096316;28;20055;-65
2022/11/29 03:25:36;;;;;;;85.15;21.35;;;7.30;99.90;;;;;;5094817;28;20208;-64
2022/11/29 03:28:11;;;;;;;162.02;28.55;;;7.20;99.90;;;;;;5095126;28;20052;-65
2022/11/29 03:30:42;;;;;;;60.88;20.83;;;7.20;99.90;;;;;;5096336;28;20048;-64
2022/11/29 03:33:16;;;;;;;101.28;20.02;;;7.20;99.90;;;;;;5093529;28;20506;-66
2022/11/29 03:35:50;;;;;;;80.35;18.08;;;7.20;99.90;;;;;;5095012;28;20110;-64
2022/11/29 03:38:25;;;;;;;98.60;23.33;;;7.20;99.90;;;;;;5094536;28;20056;-63
2022/11/29 03:40:57;;;;;;;99.55;22.95;;;7.10;99.90;;;;;;5095328;28;20052;-64
2022/11/29 03:43:30;;;;;;;133.52;23.95;;;7.10;99.90;;;;;;5093617;28;20055;-63
2022/11/29 03:46:02;;;;;;;200.48;36.95;;;7.10;99.90;;;;;;5094569;28;20084;-64
2022/11/29 03:48:34;;;;;;;100.20;19.70;;;7.10;99.90;;;;;;5094058;28;20452;-63
2022/11/29 03:51:07;;;;;;;155.60;27.90;;;7.10;99.90;;;;;;5095648;28;20070;-64
2022/11/29 03:53:41;;;;;;;159.63;34.40;;;7.10;99.90;;;;;;5094712;28;20043;-63
2022/11/29 03:56:25;;;;;;;108.22;24.13;;;7.00;99.90;;;;;;5093116;28;20048;-64
2022/11/29 03:58:59;;;;;;;102.00;19.80;;;7.00;99.90;;;;;;5094423;28;20564;-64
2022/11/29 04:01:54;;;;;;;86.07;18.45;;;7.00;99.90;;;;;;5093914;28;20052;-64
2022/11/29 04:05:09;;;;;;;54.50;18.10;;;7.00;99.90;;;;;;5095522;28;20040;-64
2022/11/29 04:07:55;;;;;;;128.38;23.90;;;6.90;99.90;;;;;;5032937;28;20057;-64
2022/11/29 04:10:46;;;;;;;81.00;22.50;;;7.00;99.90;;;;;;5094298;28;20055;-63
2022/11/29 04:13:39;;;;;;;131.38;28.85;;;6.90;99.90;;;;;;5092363;28;20047;-64
2022/11/29 04:16:43;;;;;;;72.18;18.92;;;6.90;99.90;;;;;;5093400;28;20089;-64
2022/11/29 04:19:49;;;;;;;72.18;17.23;;;6.90;99.90;;;;;;5063340;28;20476;-64
2022/11/29 04:22:43;;;;;;;101.50;23.05;;;6.90;99.90;;;;;;5093600;28;20060;-64
2022/11/29 04:25:48;;;;;;;75.75;21.02;;;6.90;99.90;;;;;;5093790;28;20059;-65
2022/11/29 04:29:14;;;;;;;38.53;16.85;;;6.90;99.90;;;;;;5094996;28;20051;-64
2022/11/29 04:31:55;;;;;;;57.08;17.73;;;6.80;99.90;;;;;;5031172;28;20045;-64
2022/11/29 04:34:40;;;;;;;98.68;23.60;;;6.80;99.90;;;;;;5064093;28;20057;-64
2022/11/29 04:37:28;;;;;;;101.53;20.48;;;6.80;99.90;;;;;;5085634;28;20052;-64
2022/11/29 04:40:21;;;;;;;57.78;17.15;;;6.80;99.90;;;;;;5087286;28;20067;-65
2022/11/29 04:43:11;;;;;;;160.95;24.63;;;6.70;99.90;;;;;;5079848;28;20052;-64
2022/11/29 04:46:05;;;;;;;125.15;22.00;;;6.70;99.90;;;;;;5087434;28;20049;-64
2022/11/29 04:49:05;;;;;;;128.43;19.65;;;6.70;99.90;;;;;;5091002;28;20048;-64
2022/11/29 04:51:48;;;;;;;108.38;21.20;;;6.60;99.90;;;;;;5084577;28;20047;-65
2022/11/29 04:54:26;;;;;;;32.65;13.85;;;6.60;99.90;;;;;;5088031;28;20139;-65
2022/11/29 04:57:01;;;;;;;147.63;26.77;;;6.60;99.90;;;;;;5087301;28;20048;-64
2022/11/29 04:59:40;;;;;;;81.03;14.38;;;6.50;99.90;;;;;;5083429;28;20097;-64
2022/11/29 05:02:16;;;;;;;101.80;21.83;;;6.50;99.90;;;;;;5092262;28;20044;-64
2022/11/29 05:04:51;;;;;;;97.25;18.63;;;6.50;99.90;;;;;;5085551;28;20491;-63
2022/11/29 05:07:25;;;;;;;108.43;23.17;;;6.50;99.90;;;;;;5083709;28;20500;-64
2022/11/29 05:10:06;;;;;;;54.97;14.57;;;6.50;99.90;;;;;;5087037;28;20044;-64
2022/11/29 05:12:35;;;;;;;;;;;6.40;99.90;;;;;;5081919;28;20040;-64
2022/11/29 05:15:25;;;;;;;70.78;19.60;;;6.40;99.90;;;;;;5087601;28;19920;-64
2022/11/29 05:18:04;;;;;;;85.38;17.25;;;6.40;99.90;;;;;;5085999;28;20051;-64
2022/11/29 05:20:41;;;;;;;56.08;14.38;;;6.40;99.90;;;;;;5088319;28;20044;-64
2022/11/29 05:23:39;;;;;;;52.60;14.63;;;6.40;99.90;;;;;;5085676;28;20052;-63
2022/11/29 05:26:13;;;;;;;105.65;22.90;;;6.40;99.90;;;;;;5077663;28;20048;-65
2022/11/29 05:28:49;;;;;;;60.47;13.77;;;6.40;99.90;;;;;;5081859;28;20048;-64
2022/11/29 05:31:28;;;;;;;66.50;18.70;;;6.40;99.90;;;;;;5081385;28;20061;-65
2022/11/29 05:34:16;;;;;;;63.40;16.02;;;6.40;99.90;;;;;;5087364;28;20510;-65
2022/11/29 05:36:51;;;;;;;62.28;18.25;;;6.40;99.90;;;;;;5086449;28;20393;-65
2022/11/29 05:39:44;;;;;;;56.80;15.25;;;6.40;99.90;;;;;;5086590;28;20058;-65
2022/11/29 05:43:03;;;;;;;61.72;16.75;;;6.30;99.90;;;;;;5082070;28;20048;-65
2022/11/29 05:45:36;;;;;;;48.25;11.50;;;6.30;99.90;;;;;;5085848;28;20521;-63
2022/11/29 05:48:10;;;;;;;36.90;11.50;;;6.30;99.90;;;;;;5084748;28;20052;-64
2022/11/29 05:50:41;;;;;;;33.90;11.80;;;6.50;99.90;;;;;;5086720;28;20059;-63
2022/11/29 05:53:20;;;;;;;53.05;14.52;;;6.30;99.90;;;;;;5084111;28;20054;-63
2022/11/29 05:55:55;;;;;;;20.20;10.55;;;6.80;99.90;;;;;;5082760;28;20137;-63
2022/11/29 05:58:28;;;;;;;31.92;12.57;;;6.30;99.90;;;;;;5087259;28;20450;-63
2022/11/29 06:01:03;;;;;;;22.75;10.63;;;6.30;99.90;;;;;;5082964;28;20480;-63
2022/11/29 06:03:36;;;;;;;23.58;10.50;;;6.30;99.90;;;;;;5088343;28;20153;-64
2022/11/29 06:06:10;;;;;;;29.73;12.05;;;6.30;99.90;;;;;;5085182;28;20056;-63
2022/11/29 06:08:42;;;;;;;24.38;9.73;;;6.30;99.90;;;;;;5083238;28;20056;-65
2022/11/29 06:11:16;;;;;;;30.33;14.38;;;6.30;99.90;;;;;;5087915;28;20041;-65
2022/11/29 06:13:55;;;;;;;20.33;11.20;;;6.30;99.90;;;;;;5082412;28;20048;-64
2022/11/29 06:16:46;;;;;;;22.65;11.38;;;6.30;99.90;;;;;;5084805;28;20057;-64
2022/11/29 06:19:36;;;;;;;36.17;14.15;;;6.30;99.90;;;;;;5084768;28;20070;-64
2022/11/29 06:22:20;;;;;;;26.90;12.05;;;6.20;99.90;;;;;;5082200;28;20044;-64
2022/11/29 06:25:02;;;;;;;20.60;10.35;;;6.20;99.90;;;;;;5082413;28;20585;-64
2022/11/29 06:27:42;;;;;;;29.73;14.48;;;6.20;99.90;;;;;;5086145;28;20060;-64
2022/11/29 06:30:13;;;;;;;18.80;10.93;;;6.20;99.90;;;;;;5088259;28;20518;-64
2022/11/29 06:32:49;;;;;;;35.00;15.57;;;6.20;99.90;;;;;;5084116;28;20047;-64
2022/11/29 06:35:35;;;;;;;22.13;11.02;;;6.20;99.90;;;;;;5085994;28;20090;-65
2022/11/29 06:38:09;;;;;;;24.98;12.18;;;6.10;99.90;;;;;;5081125;28;20048;-62
2022/11/29 06:40:37;;;;;;;20.92;10.45;;;6.20;99.90;;;;;;5091503;28;20070;-63
2022/11/29 06:43:04;;;;;;;22.33;11.73;;;6.10;99.90;;;;;;5084831;28;20526;-63
2022/11/29 06:45:32;;;;;;;23.10;11.38;;;6.20;99.90;;;;;;5082570;28;20505;-64
2022/11/29 06:48:03;;;;;;;26.00;13.60;;;6.20;99.90;;;;;;5083791;28;20051;-64
2022/11/29 06:50:47;;;;;;;19.30;10.85;;;6.20;99.90;;;;;;5082056;28;20565;-63
2022/11/29 06:53:22;;;;;;;19.23;10.85;;;6.20;99.90;;;;;;5085132;28;20043;-63
2022/11/29 06:55:56;;;;;;;17.33;9.90;;;6.20;99.90;;;;;;5082953;28;20044;-63
2022/11/29 06:58:37;;;;;;;20.40;10.00;;;6.20;99.90;;;;;;5083883;28;20044;-64
2022/11/29 07:01:15;;;;;;;23.33;11.18;;;6.30;99.90;;;;;;5087454;28;20051;-63
2022/11/29 07:03:58;;;;;;;21.77;11.43;;;6.30;99.90;;;;;;5086324;28;20071;-64
2022/11/29 07:06:28;;;;;;;17.10;9.68;;;6.40;99.90;;;;;;5087465;28;20145;-63
2022/11/29 07:08:59;;;;;;;18.80;10.00;;;6.40;99.90;;;;;;5082803;28;20438;-63
2022/11/29 07:11:27;;;;;;;21.55;10.98;;;6.40;99.90;;;;;;5082671;28;20055;-64
2022/11/29 07:13:54;;;;;;;22.60;10.27;;;6.40;99.90;;;;;;5085215;28;20452;-64
2022/11/29 07:16:26;;;;;;;17.80;9.52;;;6.40;99.90;;;;;;5082125;28;20094;-63
2022/11/29 07:19:03;;;;;;;15.18;9.25;;;6.50;99.90;;;;;;5083122;28;20073;-64
2022/11/29 07:21:43;;;;;;;16.20;9.85;;;6.50;99.90;;;;;;5084601;28;20125;-64
2022/11/29 07:24:25;;;;;;;15.98;8.85;;;6.50;99.90;;;;;;5086113;28;20040;-64
2022/11/29 07:27:00;;;;;;;16.90;10.35;;;6.50;99.90;;;;;;5086393;28;20565;-65
2022/11/29 07:29:37;;;;;;;18.20;11.02;;;6.50;99.90;;;;;;5087724;28;20404;-64
2022/11/29 07:32:12;;;;;;;17.60;10.00;;;6.50;99.90;;;;;;5087900;28;20139;-65
2022/11/29 07:34:48;;;;;;;16.35;9.77;;;6.40;99.90;;;;;;5090920;28;20056;-63
2022/11/29 07:37:24;;;;;;;16.58;9.60;;;6.40;99.90;;;;;;5090436;28;20085;-64
2022/11/29 07:39:58;;;;;;;16.92;10.90;;;6.30;99.90;;;;;;5091194;28;20494;-63
2022/11/29 07:42:31;;;;;;;15.20;9.50;;;6.30;99.90;;;;;;5091252;28;20557;-64
2022/11/29 07:45:10;;;;;;;22.70;11.52;;;6.30;99.90;;;;;;5090336;28;20044;-64
2022/11/29 07:47:37;;;;;;;16.23;8.82;;;6.20;99.90;;;;;;5089368;28;20048;-64
2022/11/29 07:50:06;;;;;;;20.58;10.80;;;6.20;99.90;;;;;;5091850;28;20068;-65
2022/11/29 07:52:34;;;;;;;17.15;9.70;;;6.20;99.90;;;;;;5091275;28;20047;-65
2022/11/29 07:55:02;;;;;;;16.05;9.63;;;6.20;99.90;;;;;;5090080;28;20459;-65
2022/11/29 07:57:29;;;;;;;18.55;10.50;;;6.20;99.90;;;;;;5091584;28;20495;-65
2022/11/29 07:59:55;;;;;;;15.60;9.15;;;6.20;99.90;;;;;;5089891;28;20047;-65
2022/11/29 08:02:32;;;;;;;17.23;9.48;;;6.20;99.90;;;;;;5090246;28;20051;-64
2022/11/29 08:05:00;;;;;;;20.13;10.90;;;6.20;99.90;;;;;;5091447;28;20114;-64
2022/11/29 08:07:30;;;;;;;292.02;39.50;;;6.30;99.90;;;;;;5093428;28;20498;-62
2022/11/29 08:09:59;;;;;;;25.38;11.10;;;6.30;99.90;;;;;;5095400;28;20044;-62
2022/11/29 08:12:25;;;;;;;20.02;9.75;;;6.30;99.90;;;;;;5093733;28;20488;-62
2022/11/29 08:14:52;;;;;;;20.15;10.18;;;6.30;99.90;;;;;;5093596;28;20434;-63
2022/11/29 08:17:19;;;;;;;18.27;10.02;;;6.30;99.90;;;;;;5095055;28;20044;-63
2022/11/29 08:19:46;;;;;;;21.67;10.45;;;6.40;99.90;;;;;;5094166;28;20052;-63
2022/11/29 08:22:13;;;;;;;21.52;10.65;;;6.40;99.90;;;;;;5094299;28;20089;-64
2022/11/29 08:24:40;;;;;;;17.40;10.32;;;6.50;99.90;;;;;;5095128;28;20495;-64
2022/11/29 08:27:08;;;;;;;16.33;10.00;;;6.50;99.90;;;;;;5093095;28;20205;-64
2022/11/29 08:29:35;;;;;;;18.30;9.50;;;6.50;99.90;;;;;;5094279;28;20051;-65
2022/11/29 08:32:02;;;;;;;20.33;11.13;;;6.60;99.90;;;;;;5091570;28;20067;-65
2022/11/29 08:34:29;;;;;;;20.27;11.15;;;6.70;99.90;;;;;;5093499;28;20059;-64
2022/11/29 08:36:56;;;;;;;18.10;10.45;;;6.60;99.90;;;;;;5093182;28;20442;-64
2022/11/29 08:39:23;;;;;;;24.42;11.43;;;6.70;99.90;;;;;;5093697;28;20108;-64
2022/11/29 08:41:50;;;;;;;17.55;10.38;;;6.80;99.90;;;;;;5094577;28;20055;-64
2022/11/29 08:44:19;;;;;;;17.25;10.38;;;6.90;99.90;;;;;;5091549;28;20083;-64
2022/11/29 08:49:30;;;;;;;19.45;9.35;;;7.10;99.90;;;;;;5090138;28;20443;-64
2022/11/29 08:54:37;;;;;;;;;;;7.30;99.90;;;;;;5088877;28;20032;-64
2022/11/29 08:57:04;;;;;;;17.00;9.20;;;7.30;99.90;;;;;;5093585;28;19931;-64
2022/11/29 08:59:33;;;;;;;18.67;9.32;;;7.40;99.90;;;;;;5093076;28;20059;-64
2022/11/29 09:02:00;;;;;;;18.98;9.32;;;7.50;99.90;;;;;;5091890;28;20048;-64
2022/11/29 09:04:27;;;;;;;16.80;9.05;;;7.60;99.90;;;;;;5092073;28;20068;-64
2022/11/29 09:06:53;;;;;;;18.33;9.35;;;7.70;99.90;;;;;;5092918;28;20044;-64
2022/11/29 09:09:20;;;;;;;20.25;8.88;;;7.80;99.90;;;;;;5093188;28;20102;-64
2022/11/29 09:11:47;;;;;;;14.00;8.23;;;7.80;99.90;;;;;;5093270;28;20118;-64
2022/11/29 09:14:16;;;;;;;19.83;8.57;;;8.00;99.90;;;;;;5094092;28;20093;-64
2022/11/29 09:16:44;;;;;;;20.45;7.97;;;8.10;99.90;;;;;;5092496;28;20059;-64
2022/11/29 09:19:14;;;;;;;19.60;7.70;;;8.20;99.90;;;;;;5091897;28;20066;-64
2022/11/29 09:21:41;;;;;;;13.13;7.38;;;8.30;99.90;;;;;;5090896;28;20059;-65
2022/11/29 09:24:09;;;;;;;18.75;7.78;;;8.30;99.90;;;;;;5089595;28;20048;-65
2022/11/29 09:26:39;;;;;;;21.52;7.68;;;8.30;99.90;;;;;;5091992;28;20056;-65
2022/11/29 09:29:07;;;;;;;22.40;8.20;;;8.30;99.90;;;;;;5092529;28;20408;-65
2022/11/29 09:31:34;;;;;;;19.70;7.53;;;8.30;99.90;;;;;;5089663;28;20048;-65
2022/11/29 09:34:03;;;;;;;17.42;8.25;;;8.30;99.90;;;;;;5090984;28;20454;-65
2022/11/29 09:36:30;;;;;;;18.42;7.50;;;8.30;99.90;;;;;;5092412;28;20052;-65
2022/11/29 09:38:58;;;;;;;18.25;7.68;;;8.30;99.90;;;;;;5090356;28;20397;-65
2022/11/29 09:41:37;;;;;;;22.38;7.90;;;8.30;99.90;;;;;;5093284;28;20044;-65
2022/11/29 09:44:14;;;;;;;14.07;6.95;;;8.30;99.90;;;;;;5090655;28;20488;-65
2022/11/29 09:46:48;;;;;;;16.58;7.82;;;8.30;99.90;;;;;;5091744;28;20044;-65
2022/11/29 09:49:33;;;;;;;18.10;7.22;;;8.30;99.90;;;;;;5092186;28;20446;-65
2022/11/29 09:52:09;;;;;;;16.95;6.90;;;8.30;99.90;;;;;;5091714;28;20557;-65
2022/11/29 09:54:42;;;;;;;18.65;8.07;;;8.40;99.90;;;;;;5088748;28;20168;-65
2022/11/29 09:57:10;;;;;;;20.70;8.23;;;8.40;99.90;;;;;;5093183;28;20396;-65
2022/11/29 09:59:42;;;;;;;17.33;8.75;;;8.50;99.90;;;;;;5090118;28;20400;-65
2022/11/29 10:02:17;;;;;;;20.52;7.80;;;8.50;99.90;;;;;;5091681;28;20039;-65
2022/11/29 10:04:52;;;;;;;17.77;7.78;;;8.60;99.90;;;;;;5091643;28;20403;-65
2022/11/29 10:07:25;;;;;;;18.77;7.85;;;8.70;99.90;;;;;;5091031;28;20048;-65
2022/11/29 10:09:56;;;;;;;14.75;7.85;;;8.80;99.90;;;;;;5091829;28;20062;-65
2022/11/29 10:12:31;;;;;;;16.10;7.65;;;8.80;99.90;;;;;;5092997;28;20055;-65
2022/11/29 10:15:07;;;;;;;11.77;6.75;;;8.90;99.90;;;;;;5091886;28;20044;-64
2022/11/29 10:17:38;;;;;;;15.18;7.70;;;9.00;99.90;;;;;;5091495;28;20048;-65
2022/11/29 10:20:14;;;;;;;14.73;8.23;;;9.10;99.90;;;;;;5092895;28;20453;-64
2022/11/29 10:22:48;;;;;;;18.00;7.60;;;9.20;99.90;;;;;;5090955;28;20101;-64
2022/11/29 10:25:24;;;;;;;16.70;8.52;;;9.20;99.90;;;;;;5089927;28;20047;-65
2022/11/29 10:27:51;;;;;;;16.90;9.25;;;9.20;99.90;;;;;;5091911;28;20040;-64
2022/11/29 10:30:18;;;;;;;17.55;8.60;;;9.30;99.90;;;;;;5090334;28;20059;-64
2022/11/29 10:32:48;;;;;;;20.08;8.60;;;9.30;99.90;;;;;;5092302;28;20403;-65
2022/11/29 10:35:19;;;;;;;16.77;8.77;;;9.40;99.90;;;;;;5090919;28;20051;-65
2022/11/29 10:37:47;;;;;;;16.23;8.52;;;9.50;99.90;;;;;;5092502;28;20305;-64
2022/11/29 10:40:18;;;;;;;16.98;7.85;;;9.50;99.90;;;;;;5091032;28;20071;-64
2022/11/29 10:42:48;;;;;;;16.50;8.00;;;9.60;99.90;;;;;;5091648;28;20051;-64
2022/11/29 10:45:19;;;;;;;20.08;8.48;;;9.70;99.90;;;;;;5092165;28;20403;-64
2022/11/29 10:47:47;;;;;;;16.77;7.75;;;9.80;99.90;;;;;;5088208;28;20059;-64
2022/11/29 10:50:25;;;;;;;13.98;7.60;;;9.80;99.90;;;;;;5090628;28;20044;-65
2022/11/29 10:52:53;;;;;;;13.23;7.78;;;9.80;99.90;;;;;;5092164;28;20048;-65
2022/11/29 10:55:22;;;;;;;14.43;7.85;;;9.90;99.90;;;;;;5092165;28;20043;-64
2022/11/29 10:58:10;;;;;;;18.73;8.90;;;9.90;99.90;;;;;;5088283;28;20450;-65
2022/11/29 11:00:51;;;;;;;17.08;9.10;;;10.00;99.90;;;;;;5090214;28;20044;-64
2022/11/29 11:03:26;;;;;;;14.55;7.90;;;10.00;99.90;;;;;;5091372;28;20098;-64
2022/11/29 11:06:03;;;;;;;13.07;8.18;;;10.00;99.90;;;;;;5089298;28;20052;-64
2022/11/29 11:08:32;;;;;;;16.05;9.23;;;10.10;99.90;;;;;;5092232;28;20051;-64
2022/11/29 11:11:00;;;;;;;16.30;9.40;;;10.20;99.90;;;;;;5088189;28;20047;-64
2022/11/29 11:13:30;;;;;;;15.77;9.32;;;10.20;99.90;;;;;;5090067;28;20044;-64
2022/11/29 11:15:59;;;;;;;12.65;9.25;;;10.30;99.90;;;;;;5090932;28;20056;-64
2022/11/29 11:18:29;;;;;;;15.57;9.10;;;10.50;99.90;;;;;;5091376;28;20048;-64
2022/11/29 11:21:00;;;;;;;16.08;8.82;;;10.60;99.90;;;;;;5090668;28;20052;-64
2022/11/29 11:23:30;;;;;;;13.90;8.55;;;10.70;99.90;;;;;;5090359;28;20056;-65
2022/11/29 11:26:00;;;;;;;12.07;8.02;;;10.80;99.90;;;;;;5088980;28;20055;-64
2022/11/29 11:28:30;;;;;;;13.80;8.35;;;10.80;99.90;;;;;;5088896;28;20059;-64
2022/11/29 11:31:00;;;;;;;14.40;7.97;;;10.90;99.90;;;;;;5089134;28;20048;-65
2022/11/29 11:33:28;;;;;;;12.48;7.47;;;10.80;99.90;;;;;;5091190;28;20154;-64
2022/11/29 11:36:12;;;;;;;12.90;7.63;;;10.80;99.90;;;;;;5090388;28;20044;-65
2022/11/29 11:38:49;;;;;;;13.30;7.45;;;10.70;99.90;;;;;;5088036;28;20442;-65
2022/11/29 11:41:20;;;;;;;11.00;8.38;;;10.70;99.90;;;;;;5093723;28;20047;-65
2022/11/29 11:43:54;;;;;;;12.57;8.20;;;10.60;99.90;;;;;;5093919;28;20040;-64
2022/11/29 11:46:21;;;;;;;13.40;8.32;;;10.60;99.90;;;;;;5092914;28;20538;-65
2022/11/29 11:48:48;;;;;;;12.57;7.63;;;10.50;99.90;;;;;;5094149;28;20060;-64
2022/11/29 11:51:25;;;;;;;11.55;8.13;;;10.50;99.90;;;;;;5094626;28;20059;-64
2022/11/29 11:53:57;;;;;;;12.65;8.07;;;10.40;99.90;;;;;;5095281;28;20392;-64
2022/11/29 11:56:26;;;;;;;13.93;8.35;;;10.40;99.90;;;;;;5092015;28;20048;-64
2022/11/29 11:58:56;;;;;;;13.88;8.45;;;10.40;99.90;;;;;;5093424;28;20093;-64
2022/11/29 12:01:29;;;;;;;14.07;8.05;;;10.30;99.90;;;;;;5094743;28;20048;-64
2022/11/29 12:04:05;;;;;;;10.98;6.85;;;10.30;99.90;;;;;;5092525;28;20123;-65
2022/11/29 12:06:38;;;;;;;11.02;7.07;;;10.20;99.90;;;;;;5077354;28;20048;-64
2022/11/29 12:09:18;;;;;;;10.60;6.95;;;10.20;99.90;;;;;;5083295;28;20368;-65
2022/11/29 12:11:50;;;;;;;11.50;7.20;;;10.20;99.90;;;;;;5088850;28;20093;-64
2022/11/29 12:14:25;;;;;;;9.40;6.82;;;10.30;99.90;;;;;;5084427;28;20044;-65
2022/11/29 12:17:10;;;;;;;10.25;6.40;;;10.30;99.90;;;;;;5091050;28;20067;-65
2022/11/29 12:19:46;;;;;;;8.52;6.68;;;10.20;99.90;;;;;;5084916;28;20067;-63
2022/11/29 12:22:21;;;;;;;11.27;6.75;;;10.20;99.90;;;;;;5085836;28;20567;-65
2022/11/29 12:24:57;;;;;;;7.13;5.90;;;10.10;99.90;;;;;;5089921;28;20052;-64
2022/11/29 12:27:24;;;;;;;7.15;5.50;;;10.00;99.90;;;;;;5088192;28;20051;-63
2022/11/29 12:29:51;;;;;;;8.35;5.43;;;10.00;99.90;;;;;;5085398;28;20048;-64
2022/11/29 12:32:30;;;;;;;7.85;5.35;;;9.90;99.90;;;;;;5087629;28;20056;-64
2022/11/29 12:35:29;;;;;;;8.85;6.00;;;9.90;99.90;;;;;;5089703;28;20044;-65
2022/11/29 12:38:05;;;;;;;8.23;6.50;;;9.90;99.90;;;;;;5093183;28;20040;-64
2022/11/29 12:40:39;;;;;;;6.97;5.80;;;9.80;99.90;;;;;;5092198;28;20048;-64
2022/11/29 12:43:16;;;;;;;6.40;5.40;;;9.80;99.90;;;;;;5092665;28;20105;-65
2022/11/29 12:45:53;;;;;;;11.63;5.45;;;9.70;99.90;;;;;;5094245;28;20048;-65
2022/11/29 12:48:32;;;;;;;8.75;7.05;;;9.70;99.90;;;;;;5093728;28;20105;-65
2022/11/29 12:51:05;;;;;;;9.07;7.15;;;9.60;99.90;;;;;;5093459;28;20078;-65
2022/11/29 12:53:49;;;;;;;9.55;6.85;;;9.50;99.90;;;;;;5089558;28;20421;-64
2022/11/29 12:56:25;;;;;;;8.48;7.22;;;9.50;99.90;;;;;;5092579;28;20188;-65
2022/11/29 12:59:01;;;;;;;8.40;6.78;;;9.40;99.90;;;;;;5085591;28;20051;-65
2022/11/29 13:01:37;;;;;;;9.02;7.38;;;9.40;99.90;;;;;;5093955;28;20490;-65
2022/11/29 13:04:15;;;;;;;9.90;7.53;;;9.40;99.90;;;;;;5093560;28;20044;-65
2022/11/29 13:06:49;;;;;;;9.07;7.40;;;9.30;99.90;;;;;;5094193;28;20048;-65
2022/11/29 13:09:43;;;;;;;7.75;6.65;;;9.30;99.90;;;;;;5094136;28;20048;-65
2022/11/29 13:12:17;;;;;;;8.23;6.30;;;9.30;99.90;;;;;;5092684;28;20047;-65
2022/11/29 13:14:52;;;;;;;7.75;6.03;;;9.20;99.90;;;;;;5092809;28;20051;-65
2022/11/29 13:17:30;;;;;;;8.45;7.10;;;9.10;99.90;;;;;;5092289;28;20050;-65
2022/11/29 13:20:01;;;;;;;9.85;7.55;;;9.10;99.90;;;;;;5091608;28;20051;-65
2022/11/29 13:22:35;;;;;;;8.15;6.72;;;9.00;99.90;;;;;;5092712;28;20048;-65